Time;durP1;ratioP1;P1;durP2;ratioP2;P2;SDS_P1;SDS_P2;PMS_P1;PMS_P2;Temp;Humidity;BMP_temperature;BMP_pressure;BME280_temperature;BME280_humidity;BME280_pressure;Samples;Min_cycle;Max_cycle;Signal;HPM_P1;HPM_P2
2022/09/12 00:02:19;;;;;;;18.33;16.63;;;14.60;99.90;;;;;;5004589;28;90244;-30
2022/09/12 00:04:45;;;;;;;19.48;17.48;;;14.60;99.90;;;;;;5003948;28;89638;-30
2022/09/12 00:07:11;;;;;;;16.63;15.02;;;14.50;99.90;;;;;;5004450;28;90406;-32
2022/09/12 00:09:36;;;;;;;18.95;17.15;;;14.50;99.90;;;;;;5003574;28;90531;-30
2022/09/12 00:12:03;;;;;;;25.65;19.73;;;14.50;99.90;;;;;;5003092;28;90639;-34
2022/09/12 00:14:28;;;;;;;18.90;17.10;;;14.50;99.90;;;;;;5004036;28;88712;-29
2022/09/12 00:16:57;;;;;;;19.02;17.05;;;14.50;99.90;;;;;;5004192;28;90379;-31
2022/09/12 00:19:23;;;;;;;19.40;17.58;;;14.40;99.90;;;;;;5003910;28;90106;-31
2022/09/12 00:21:48;;;;;;;17.17;15.30;;;14.40;99.90;;;;;;5004330;28;89823;-32
2022/09/12 00:24:14;;;;;;;21.52;18.40;;;14.40;99.90;;;;;;5004115;28;89379;-30
2022/09/12 00:26:40;;;;;;;23.55;17.75;;;14.40;99.90;;;;;;5003693;28;91379;-30
2022/09/12 00:29:05;;;;;;;21.85;19.58;;;14.40;99.90;;;;;;5000086;28;89724;-32
2022/09/12 00:31:31;;;;;;;19.88;18.08;;;14.30;99.90;;;;;;5001264;28;89596;-29
2022/09/12 00:33:59;;;;;;;22.52;16.92;;;14.30;99.90;;;;;;5000201;28;90061;-34
2022/09/12 00:36:25;;;;;;;17.52;15.90;;;14.20;99.90;;;;;;5000884;28;89277;-32
2022/09/12 00:38:53;;;;;;;17.80;16.10;;;14.20;99.90;;;;;;5047786;22;90822;-32
2022/09/12 00:41:22;;;;;;;19.57;17.63;;;14.20;99.90;;;;;;5020931;27;90300;-31
2022/09/12 00:43:57;;;;;;;21.27;19.23;;;14.20;99.90;;;;;;5021031;28;89395;-30
2022/09/12 00:46:28;;;;;;;20.15;18.17;;;14.10;99.90;;;;;;5020640;27;90300;-33
2022/09/12 00:49:27;;;;;;;17.58;15.13;;;14.10;99.90;;;;;;5020708;28;90527;-33
2022/09/12 00:52:08;;;;;;;17.40;15.23;;;14.00;99.90;;;;;;5020971;28;88689;-30
2022/09/12 00:54:40;;;;;;;15.90;14.30;;;13.90;99.90;;;;;;5020609;28;88432;-32
2022/09/12 00:57:08;;;;;;;20.88;16.80;;;13.90;99.90;;;;;;5020499;27;90134;-33
2022/09/12 00:59:47;;;;;;;19.48;17.48;;;13.80;99.90;;;;;;5020178;28;90765;-34
2022/09/12 01:02:13;;;;;;;19.85;16.98;;;13.80;99.90;;;;;;5020536;28;91030;-33
2022/09/12 01:04:39;;;;;;;18.48;16.48;;;13.80;99.90;;;;;;5020069;27;88368;-33
2022/09/12 01:07:06;;;;;;;19.90;17.95;;;13.70;99.90;;;;;;5020200;27;90134;-31
2022/09/12 01:09:32;;;;;;;19.45;17.55;;;13.70;99.90;;;;;;5020021;28;90770;-31
2022/09/12 01:12:00;;;;;;;19.65;17.63;;;13.70;99.90;;;;;;5020529;28;88603;-31
2022/09/12 01:14:25;;;;;;;20.37;17.40;;;13.70;99.90;;;;;;5016907;27;88456;-30
2022/09/12 01:16:51;;;;;;;19.10;17.23;;;13.70;99.90;;;;;;5020278;28;90156;-32
2022/09/12 01:19:26;;;;;;;18.65;16.70;;;13.70;99.90;;;;;;5019469;28;91450;-31
2022/09/12 01:22:13;;;;;;;20.73;17.83;;;13.70;99.90;;;;;;5020158;28;89759;-30
2022/09/12 01:25:06;;;;;;;18.20;16.50;;;13.70;99.90;;;;;;5006371;28;89981;-33
2022/09/12 01:27:41;;;;;;;18.55;16.63;;;13.70;99.90;;;;;;5019296;28;90302;-34
2022/09/12 01:30:42;;;;;;;19.83;17.73;;;13.70;99.90;;;;;;5020274;28;90415;-32
2022/09/12 01:33:22;;;;;;;26.20;19.98;;;13.60;99.90;;;;;;5005960;28;88912;-29
2022/09/12 01:36:12;;;;;;;23.33;19.27;;;13.70;99.90;;;;;;5020032;28;88357;-33
2022/09/12 01:38:58;;;;;;;24.80;21.80;;;13.70;99.90;;;;;;5008567;27;91336;-30
2022/09/12 01:41:42;;;;;;;30.15;21.58;;;13.70;99.90;;;;;;5019467;27;88981;-33
2022/09/12 01:44:23;;;;;;;23.65;19.70;;;13.70;99.90;;;;;;5020123;27;89345;-32
2022/09/12 01:47:16;;;;;;;27.40;23.20;;;13.70;99.90;;;;;;5020189;27;89034;-33
2022/09/12 01:49:51;;;;;;;25.73;20.58;;;13.70;99.90;;;;;;5019548;27;90263;-31
2022/09/12 01:52:36;;;;;;;28.00;23.50;;;13.80;99.90;;;;;;5018782;27;90521;-33
2022/09/12 01:55:11;;;;;;;29.02;22.63;;;13.80;99.90;;;;;;5019501;27;90663;-34
2022/09/12 01:58:03;;;;;;;33.67;21.13;;;13.80;99.90;;;;;;5019230;27;89314;-33
2022/09/12 02:00:33;;;;;;;27.40;21.67;;;13.80;99.90;;;;;;5019567;27;89290;-31
2022/09/12 02:03:08;;;;;;;32.42;23.70;;;13.90;99.90;;;;;;5020304;27;90704;-31
2022/09/12 02:05:37;;;;;;;24.95;20.40;;;13.80;99.90;;;;;;5018882;27;89589;-34
2022/09/12 02:08:26;;;;;;;25.17;21.85;;;13.80;99.90;;;;;;5019492;27;88357;-30
2022/09/12 02:10:55;;;;;;;29.48;24.38;;;13.80;99.90;;;;;;5007450;28;90462;-33
2022/09/12 02:13:26;;;;;;;32.88;23.80;;;13.80;99.90;;;;;;5019285;27;89948;-34
2022/09/12 02:15:57;;;;;;;35.80;25.42;;;13.80;99.90;;;;;;5019204;27;90524;-31
2022/09/12 02:18:26;;;;;;;26.88;22.52;;;13.90;99.90;;;;;;5019059;27;90260;-29
2022/09/12 02:20:53;;;;;;;29.95;23.88;;;13.80;99.90;;;;;;5019388;27;91317;-31
2022/09/12 02:23:23;;;;;;;20.73;17.20;;;13.80;99.90;;;;;;5018415;27;89939;-30
2022/09/12 02:25:55;;;;;;;19.42;15.00;;;13.70;99.90;;;;;;5018995;28;89982;-32
2022/09/12 02:28:26;;;;;;;14.27;12.88;;;13.70;99.90;;;;;;5019600;27;90096;-32
2022/09/12 02:31:26;;;;;;;26.25;20.85;;;13.50;99.90;;;;;;5018851;27;90213;-29
2022/09/12 02:34:10;;;;;;;29.80;23.30;;;13.50;99.90;;;;;;4973988;28;89608;-31
2022/09/12 02:37:10;;;;;;;31.05;23.33;;;13.50;99.90;;;;;;5019704;28;89913;-33
2022/09/12 02:39:35;;;;;;;27.65;22.52;;;13.50;99.90;;;;;;5018800;27;88852;-31
2022/09/12 02:42:02;;;;;;;29.83;24.77;;;13.50;99.90;;;;;;5018761;28;89912;-33
2022/09/12 02:44:29;;;;;;;33.22;23.40;;;13.60;99.90;;;;;;5017962;27;90895;-30
2022/09/12 02:47:01;;;;;;;38.80;26.23;;;13.60;99.90;;;;;;5019295;27;90633;-32
2022/09/12 02:49:27;;;;;;;32.00;24.95;;;13.60;99.90;;;;;;5019190;27;90423;-31
2022/09/12 02:51:53;;;;;;;35.67;28.10;;;13.60;99.90;;;;;;5018276;28;90036;-31
2022/09/12 02:54:19;;;;;;;27.88;23.60;;;13.60;99.90;;;;;;5017548;28;89551;-30
2022/09/12 02:56:46;;;;;;;33.60;24.90;;;13.60;99.90;;;;;;5018902;27;89409;-31
2022/09/12 02:59:16;;;;;;;29.92;23.80;;;13.60;99.90;;;;;;5018598;28;88498;-35
2022/09/12 03:02:09;;;;;;;31.23;24.25;;;13.60;99.90;;;;;;5019258;28;91745;-33
2022/09/12 03:04:47;;;;;;;30.33;25.38;;;13.60;99.90;;;;;;5017666;28;90252;-33
2022/09/12 03:07:21;;;;;;;29.67;22.42;;;13.60;99.90;;;;;;5018735;28;89862;-31
2022/09/12 03:10:01;;;;;;;34.75;24.33;;;13.60;99.90;;;;;;5016330;28;90465;-31
2022/09/12 03:13:02;;;;;;;32.50;24.55;;;13.50;99.90;;;;;;5009068;28;90502;-31
2022/09/12 03:16:05;;;;;;;32.42;24.98;;;13.50;99.90;;;;;;4972746;27;89662;-34
2022/09/12 03:18:45;;;;;;;34.50;25.95;;;13.50;99.90;;;;;;5018074;27;90049;-32
2022/09/12 03:21:26;;;;;;;33.67;27.20;;;13.50;99.90;;;;;;5019054;28;88571;-32
2022/09/12 03:24:01;;;;;;;34.70;22.60;;;13.50;99.90;;;;;;5018979;27;90955;-29
2022/09/12 03:26:39;;;;;;;28.67;21.17;;;13.50;99.90;;;;;;5017933;28;90049;-32
2022/09/12 03:29:05;;;;;;;;;;;13.50;99.90;;;;;;5018628;27;89499;-34
2022/09/12 03:31:31;;;;;;;30.15;23.88;;;13.40;99.90;;;;;;5020441;27;87658;-32
2022/09/12 03:33:59;;;;;;;28.98;23.25;;;13.40;99.90;;;;;;5018302;28;90015;-30
2022/09/12 03:36:27;;;;;;;25.92;21.15;;;13.30;99.90;;;;;;5017198;27;90670;-30
2022/09/12 03:38:53;;;;;;;29.70;22.08;;;13.40;99.90;;;;;;5017397;27;90717;-31
2022/09/12 03:41:18;;;;;;;24.60;17.60;;;13.30;99.90;;;;;;5018026;28;89234;-31
2022/09/12 03:43:45;;;;;;;26.00;19.80;;;13.30;99.90;;;;;;5017840;28;90270;-31
2022/09/12 03:46:10;;;;;;;21.00;17.88;;;13.20;99.90;;;;;;5017879;27;89647;-31
2022/09/12 03:48:36;;;;;;;24.35;17.65;;;13.20;99.90;;;;;;5018305;28;90656;-30
2022/09/12 03:51:07;;;;;;;21.83;15.73;;;13.20;99.90;;;;;;5018202;27;88422;-31
2022/09/12 03:53:33;;;;;;;30.50;18.30;;;13.10;99.90;;;;;;5017150;28;90553;-33
2022/09/12 03:55:59;;;;;;;20.17;15.55;;;13.10;99.90;;;;;;5018389;28;90884;-31
2022/09/12 03:58:29;;;;;;;22.25;17.60;;;13.10;99.90;;;;;;5017430;27;89886;-31
2022/09/12 04:00:54;;;;;;;19.65;17.25;;;13.00;99.90;;;;;;5016980;27;89469;-31
2022/09/12 04:03:20;;;;;;;21.60;16.63;;;12.90;99.90;;;;;;5019751;27;89904;-31
2022/09/12 04:05:46;;;;;;;21.77;17.35;;;12.90;99.90;;;;;;5021637;28;89817;-34
2022/09/12 04:08:12;;;;;;;16.67;14.77;;;12.90;99.90;;;;;;5019680;27;89239;-30
2022/09/12 04:10:38;;;;;;;20.92;17.13;;;12.80;99.90;;;;;;5019855;28;89374;-35
2022/09/12 04:13:03;;;;;;;19.90;16.50;;;12.80;99.90;;;;;;5019131;28;91639;-33
2022/09/12 04:15:29;;;;;;;18.55;15.98;;;12.80;99.90;;;;;;5018758;28;89645;-35
2022/09/12 04:17:55;;;;;;;18.52;16.15;;;12.70;99.90;;;;;;5020240;27;90232;-29
2022/09/12 04:20:20;;;;;;;22.67;16.20;;;12.70;99.90;;;;;;5018585;28;89191;-30
2022/09/12 04:22:46;;;;;;;18.48;15.52;;;12.70;99.90;;;;;;5019548;28;90612;-30
2022/09/12 04:25:12;;;;;;;21.02;16.90;;;12.70;99.90;;;;;;5019863;28;90512;-34
2022/09/12 04:27:38;;;;;;;22.52;18.77;;;12.70;99.90;;;;;;5021329;28;90795;-31
2022/09/12 04:30:04;;;;;;;24.80;19.50;;;12.70;99.90;;;;;;5021151;27;90079;-30
2022/09/12 04:32:30;;;;;;;23.30;19.20;;;12.70;99.90;;;;;;5020851;28;91072;-34
2022/09/12 04:34:56;;;;;;;29.25;21.17;;;12.70;99.90;;;;;;5020627;28;89693;-33
2022/09/12 04:37:23;;;;;;;26.35;21.13;;;12.70;99.90;;;;;;5020699;27;90495;-32
2022/09/12 04:39:50;;;;;;;30.33;20.30;;;12.70;99.90;;;;;;5020134;27;88304;-30
2022/09/12 04:42:16;;;;;;;31.00;22.73;;;12.70;99.90;;;;;;5019678;28;90350;-32
2022/09/12 04:44:42;;;;;;;26.08;21.63;;;12.70;99.90;;;;;;5020462;28;88648;-32
2022/09/12 04:47:07;;;;;;;25.73;19.63;;;12.70;99.90;;;;;;5020251;27;89393;-32
2022/09/12 04:49:33;;;;;;;29.95;23.95;;;12.70;99.90;;;;;;5020036;28;89319;-33
2022/09/12 04:51:59;;;;;;;24.33;20.30;;;12.70;99.90;;;;;;5020822;28;90563;-32
2022/09/12 04:54:25;;;;;;;23.88;20.38;;;12.70;99.90;;;;;;5020710;28;89891;-30
2022/09/12 04:56:51;;;;;;;24.00;18.60;;;12.70;99.90;;;;;;5020716;28;90247;-30
2022/09/12 04:59:18;;;;;;;29.08;22.65;;;12.70;99.90;;;;;;5019059;28;89063;-32
2022/09/12 05:01:44;;;;;;;31.42;24.65;;;12.80;99.90;;;;;;5020480;27;90292;-31
2022/09/12 05:04:11;;;;;;;25.50;20.40;;;12.80;99.90;;;;;;5020486;27;90259;-30
2022/09/12 05:06:39;;;;;;;27.25;21.00;;;12.80;99.90;;;;;;5020588;27;89587;-33
2022/09/12 05:09:06;;;;;;;23.98;20.63;;;12.80;99.90;;;;;;5018914;27;89486;-35
2022/09/12 05:11:35;;;;;;;23.10;20.55;;;12.80;99.90;;;;;;5018143;27;90305;-32
2022/09/12 05:14:01;;;;;;;26.77;21.38;;;12.80;99.90;;;;;;5018012;27;90755;-29
2022/09/12 05:16:27;;;;;;;27.67;21.63;;;12.80;99.90;;;;;;5018447;27;90567;-30
2022/09/12 05:18:55;;;;;;;25.88;22.50;;;12.80;99.90;;;;;;5019636;27;88667;-33
2022/09/12 05:21:24;;;;;;;27.17;20.88;;;12.80;99.90;;;;;;5018904;27;90654;-34
2022/09/12 05:23:54;;;;;;;24.73;20.02;;;12.80;99.90;;;;;;5018370;28;89744;-33
2022/09/12 05:26:21;;;;;;;28.75;20.98;;;12.80;99.90;;;;;;5019735;27;89827;-32
2022/09/12 05:28:48;;;;;;;27.13;21.58;;;12.80;99.90;;;;;;5020103;28;88503;-30
2022/09/12 05:31:16;;;;;;;32.40;27.23;;;12.80;99.90;;;;;;5019128;28;89839;-30
2022/09/12 05:33:44;;;;;;;25.20;19.85;;;12.90;99.90;;;;;;5019282;27;90020;-33
2022/09/12 05:36:12;;;;;;;25.77;21.43;;;12.90;99.90;;;;;;5018786;27;88561;-30
2022/09/12 05:38:38;;;;;;;;;;;13.00;99.90;;;;;;5019271;28;89011;-32
2022/09/12 05:41:12;;;;;;;24.00;17.67;;;13.00;99.90;;;;;;5021516;28;90175;-31
2022/09/12 05:43:39;;;;;;;29.95;21.92;;;13.10;99.90;;;;;;5019490;28;89783;-32
2022/09/12 05:46:07;;;;;;;29.60;21.17;;;13.10;99.90;;;;;;5018163;28;89737;-32
2022/09/12 05:48:34;;;;;;;;;;;13.20;99.90;;;;;;5019260;28;88983;-34
2022/09/12 05:51:08;;;;;;;26.88;20.95;;;13.30;99.90;;;;;;5020317;27;89745;-35
2022/09/12 05:53:37;;;;;;;28.70;21.92;;;13.40;99.90;;;;;;5019310;27;90076;-33
2022/09/12 05:56:07;;;;;;;30.98;23.38;;;13.50;99.90;;;;;;5018569;27;89606;-33
2022/09/12 05:58:35;;;;;;;30.20;21.08;;;13.60;99.90;;;;;;5018512;27;88147;-32
2022/09/12 06:01:02;;;;;;;32.38;23.80;;;13.70;99.90;;;;;;5018264;28;90291;-29
2022/09/12 06:03:28;;;;;;;21.95;18.70;;;13.70;99.90;;;;;;5018445;28;90602;-33
2022/09/12 06:05:53;;;;;;;26.08;21.50;;;13.70;99.90;;;;;;5018436;28;90503;-33
2022/09/12 06:08:19;;;;;;;26.10;21.27;;;13.70;99.90;;;;;;5018364;27;88707;-33
2022/09/12 06:10:44;;;;;;;27.75;19.92;;;13.70;99.90;;;;;;5018326;28;89932;-31
2022/09/12 06:13:10;;;;;;;25.80;20.25;;;13.80;99.90;;;;;;5018740;28;89733;-31
2022/09/12 06:15:36;;;;;;;24.10;20.70;;;13.80;99.90;;;;;;5018510;28;89607;-30
2022/09/12 06:18:02;;;;;;;31.02;21.55;;;13.80;99.90;;;;;;5018692;28;88578;-32
2022/09/12 06:20:27;;;;;;;28.58;22.20;;;13.90;99.90;;;;;;5018618;28;90748;-31
2022/09/12 06:22:53;;;;;;;29.17;21.67;;;13.90;99.90;;;;;;5019064;27;89579;-31
2022/09/12 06:25:19;;;;;;;27.77;22.48;;;13.90;99.90;;;;;;5017253;28;88476;-30
2022/09/12 06:27:46;;;;;;;33.13;21.35;;;13.90;99.90;;;;;;5018345;28;89772;-30
2022/09/12 06:30:12;;;;;;;33.08;25.38;;;13.90;99.90;;;;;;5018307;27;90042;-34
2022/09/12 06:32:37;;;;;;;30.83;24.77;;;13.90;99.90;;;;;;5018632;27;88396;-32
2022/09/12 06:35:04;;;;;;;33.55;23.30;;;14.00;99.90;;;;;;5019019;28;89946;-30
2022/09/12 06:37:31;;;;;;;30.85;22.88;;;14.00;99.90;;;;;;5018005;28;89966;-31
2022/09/12 06:39:57;;;;;;;32.92;24.30;;;14.10;99.90;;;;;;5018546;28;89510;-35
2022/09/12 06:42:23;;;;;;;36.03;26.20;;;14.10;99.90;;;;;;5018858;27;89136;-33
2022/09/12 06:44:49;;;;;;;36.03;27.55;;;14.10;99.90;;;;;;5018539;28;90065;-33
2022/09/12 06:47:15;;;;;;;34.35;26.45;;;14.20;99.90;;;;;;5020986;27;90130;-29
2022/09/12 06:49:40;;;;;;;35.42;26.60;;;14.30;99.90;;;;;;5019812;28;90105;-31
2022/09/12 06:52:06;;;;;;;37.45;26.58;;;14.40;99.90;;;;;;5017141;28;90724;-35
2022/09/12 06:54:31;;;;;;;40.35;28.73;;;14.40;99.90;;;;;;5017897;28;90492;-30
2022/09/12 06:56:57;;;;;;;36.33;27.10;;;14.50;99.90;;;;;;5017825;28;89976;-31
2022/09/12 06:59:23;;;;;;;41.03;26.65;;;14.60;99.90;;;;;;5018356;28;89300;-33
2022/09/12 07:01:49;;;;;;;43.80;28.60;;;14.70;99.90;;;;;;5017698;28;90035;-33
2022/09/12 07:04:15;;;;;;;42.22;27.88;;;14.70;99.90;;;;;;5018750;27;89537;-35
2022/09/12 07:06:42;;;;;;;48.65;31.63;;;14.80;99.90;;;;;;5018148;28;88132;-31
2022/09/12 07:09:15;;;;;;;45.38;31.63;;;14.90;99.90;;;;;;5018595;28;88736;-30
2022/09/12 07:11:42;;;;;;;41.65;31.58;;;14.90;99.90;;;;;;5018481;27;89919;-33
2022/09/12 07:14:11;;;;;;;48.50;30.42;;;15.00;99.90;;;;;;5017420;27;89591;-31
2022/09/12 07:16:37;;;;;;;46.15;32.05;;;15.10;99.90;;;;;;5017439;27;88794;-30
2022/09/12 07:19:05;;;;;;;42.80;28.27;;;15.20;99.90;;;;;;5017746;28;89173;-34
2022/09/12 07:21:31;;;;;;;34.75;25.95;;;15.30;99.90;;;;;;5017861;27;90040;-30
2022/09/12 07:23:57;;;;;;;43.88;28.05;;;15.30;99.90;;;;;;5017303;27;89775;-32
2022/09/12 07:26:27;;;;;;;41.90;25.92;;;15.40;99.90;;;;;;5017537;27;88519;-30
2022/09/12 07:28:54;;;;;;;45.47;28.33;;;15.50;99.90;;;;;;5017680;27;89773;-32
2022/09/12 07:31:22;;;;;;;40.35;28.05;;;15.50;99.90;;;;;;5017505;28;90296;-31
2022/09/12 07:33:49;;;;;;;41.70;26.73;;;15.50;99.90;;;;;;5018201;27;90120;-31
2022/09/12 07:36:17;;;;;;;40.63;26.38;;;15.60;99.90;;;;;;5017264;27;87927;-32
2022/09/12 07:38:43;;;;;;;39.60;26.95;;;15.60;99.90;;;;;;5019416;27;90449;-30
2022/09/12 07:41:18;;;;;;;45.42;26.38;;;15.60;99.90;;;;;;5020975;28;90654;-29
2022/09/12 07:43:44;;;;;;;33.42;25.63;;;15.70;99.90;;;;;;5021249;28;91441;-31
2022/09/12 07:46:10;;;;;;;37.83;24.10;;;15.70;99.90;;;;;;5020480;28;89266;-34
2022/09/12 07:48:37;;;;;;;33.13;21.55;;;15.70;99.90;;;;;;5020490;27;89868;-31
2022/09/12 07:51:05;;;;;;;34.80;24.60;;;15.80;99.90;;;;;;5019801;28;89999;-29
2022/09/12 07:53:33;;;;;;;25.85;23.02;;;15.90;99.90;;;;;;5017553;28;90073;-33
2022/09/12 07:55:59;;;;;;;;;;;15.90;99.90;;;;;;5021376;28;89361;-33
2022/09/12 07:58:25;;;;;;;25.98;20.17;;;16.00;99.90;;;;;;5023306;28;90836;-32
2022/09/12 08:00:51;;;;;;;28.67;21.17;;;16.00;99.90;;;;;;5019754;27;89717;-30
2022/09/12 08:03:17;;;;;;;28.73;21.60;;;16.10;99.90;;;;;;5020843;28;89708;-35
2022/09/12 08:05:43;;;;;;;29.98;22.83;;;16.20;99.90;;;;;;5020102;27;90299;-33
2022/09/12 08:08:08;;;;;;;33.58;22.08;;;16.30;99.90;;;;;;5020439;28;90856;-33
2022/09/12 08:10:35;;;;;;;24.27;20.95;;;16.50;99.90;;;;;;5020749;28;91139;-32
2022/09/12 08:13:01;;;;;;;24.88;20.83;;;16.60;99.90;;;;;;5020199;28;89912;-31
2022/09/12 08:15:27;;;;;;;30.38;19.90;;;16.80;99.90;;;;;;5020819;27;87800;-34
2022/09/12 08:17:53;;;;;;;25.25;19.08;;;16.90;99.90;;;;;;5018220;28;93867;-32
2022/09/12 08:20:19;;;;;;;22.63;20.00;;;17.00;99.90;;;;;;5020529;28;90200;-33
2022/09/12 08:22:44;;;;;;;21.63;18.13;;;17.00;99.90;;;;;;5021290;27;90202;-30
2022/09/12 08:25:10;;;;;;;21.20;17.48;;;17.10;99.90;;;;;;5021028;27;87887;-32
2022/09/12 08:27:36;;;;;;;18.40;15.70;;;17.10;99.90;;;;;;5020368;28;90284;-31
2022/09/12 08:30:04;;;;;;;21.63;15.85;;;17.20;99.90;;;;;;5019711;27;90951;-32
2022/09/12 08:32:29;;;;;;;23.25;17.30;;;17.20;99.90;;;;;;5020171;27;91075;-31
2022/09/12 08:34:55;;;;;;;21.38;16.90;;;17.30;99.90;;;;;;5021123;28;89077;-33
2022/09/12 08:37:20;;;;;;;20.02;17.92;;;17.30;99.90;;;;;;5020003;28;90082;-34
2022/09/12 08:39:46;;;;;;;18.88;16.10;;;17.40;99.90;;;;;;5019326;28;89652;-33
2022/09/12 08:42:27;;;;;;;15.88;13.88;;;17.40;99.90;;;;;;5020155;27;90116;-32
2022/09/12 08:45:21;;;;;;;18.55;16.63;;;17.40;99.90;;;;;;5020772;28;88676;-34
2022/09/12 08:47:48;;;;;;;19.40;15.57;;;17.50;99.90;;;;;;5019156;27;89948;-30
2022/09/12 08:50:18;;;;;;;17.95;15.23;;;17.50;99.90;;;;;;5019762;27;88774;-33
2022/09/12 08:52:58;;;;;;;21.50;16.42;;;17.60;99.90;;;;;;5020342;27;89570;-34
2022/09/12 08:55:39;;;;;;;18.98;16.45;;;17.70;99.90;;;;;;5019500;27;88876;-32
2022/09/12 08:58:19;;;;;;;21.30;15.68;;;17.70;99.90;;;;;;5019857;27;90966;-32
2022/09/12 09:00:58;;;;;;;23.65;16.50;;;17.80;99.90;;;;;;5020474;28;90021;-31
2022/09/12 09:03:26;;;;;;;17.45;15.63;;;17.90;99.90;;;;;;5019368;28;90340;-32
2022/09/12 09:06:32;;;;;;;19.25;17.23;;;17.90;99.90;;;;;;5019982;28;89305;-34
2022/09/12 09:09:07;;;;;;;21.88;18.63;;;17.90;99.90;;;;;;4926805;28;90406;-34
2022/09/12 09:11:38;;;;;;;23.02;18.45;;;18.00;99.90;;;;;;5006577;28;89867;-34
2022/09/12 09:14:50;;;;;;;22.23;17.73;;;18.10;99.90;;;;;;5020356;28;90012;-31
2022/09/12 09:17:30;;;;;;;22.15;17.60;;;18.10;99.90;;;;;;5020167;27;88426;-30
2022/09/12 09:19:58;;;;;;;22.08;19.17;;;18.20;99.90;;;;;;5019840;27;90242;-30
2022/09/12 09:22:34;;;;;;;;;;;18.30;99.90;;;;;;5019146;27;90538;-30
2022/09/12 09:25:05;;;;;;;28.27;22.67;;;18.30;99.90;;;;;;5021645;27;90289;-30
2022/09/12 09:27:59;;;;;;;36.53;22.48;;;18.40;99.90;;;;;;5019592;28;88881;-33
2022/09/12 09:30:27;;;;;;;33.22;26.58;;;18.40;99.90;;;;;;5017230;28;90566;-33
2022/09/12 09:32:58;;;;;;;33.22;23.30;;;18.50;99.90;;;;;;5019104;27;90056;-33
2022/09/12 09:35:30;;;;;;;31.08;23.50;;;18.60;99.90;;;;;;5019286;27;89969;-33
2022/09/12 09:37:59;;;;;;;32.55;24.60;;;18.70;99.90;;;;;;5018458;28;88859;-31
2022/09/12 09:40:48;;;;;;;33.20;23.75;;;18.80;99.90;;;;;;5018911;27;90089;-31
2022/09/12 09:43:22;;;;;;;37.97;26.13;;;18.90;99.90;;;;;;5005784;28;89924;-31
2022/09/12 09:45:50;;;;;;;30.40;24.77;;;19.10;99.90;;;;;;5019148;28;89624;-31
2022/09/12 09:48:24;;;;;;;35.72;25.83;;;19.30;99.90;;;;;;5018346;27;90425;-31
2022/09/12 09:50:50;;;;;;;33.10;25.20;;;19.30;99.90;;;;;;5018969;27;91069;-34
2022/09/12 09:53:26;;;;;;;35.00;25.83;;;19.40;99.90;;;;;;5019478;28;91820;-30
2022/09/12 09:55:54;;;;;;;42.20;26.45;;;19.50;99.90;;;;;;5018065;28;89552;-30
2022/09/12 09:58:33;;;;;;;39.08;27.23;;;19.60;99.90;;;;;;5018776;27;90198;-31
2022/09/12 10:01:14;;;;;;;34.05;24.70;;;19.60;99.90;;;;;;5018476;27;90749;-31
2022/09/12 10:03:53;;;;;;;35.10;25.25;;;19.70;99.90;;;;;;5006596;28;89906;-33
2022/09/12 10:06:21;;;;;;;30.42;23.60;;;19.80;99.90;;;;;;5018685;28;89840;-33
2022/09/12 10:08:49;;;;;;;39.90;27.17;;;19.80;99.90;;;;;;5018744;28;87726;-31
2022/09/12 10:11:14;;;;;;;39.17;25.80;;;20.10;99.90;;;;;;5018386;27;90474;-34
2022/09/12 10:14:03;;;;;;;36.40;27.20;;;20.20;99.90;;;;;;5003900;28;91034;-31
2022/09/12 10:16:46;;;;;;;33.90;24.63;;;20.50;99.90;;;;;;5018260;27;90528;-31
2022/09/12 10:19:23;;;;;;;34.28;22.80;;;20.60;99.90;;;;;;5018510;27;89230;-30
2022/09/12 10:21:55;;;;;;;33.47;24.42;;;20.80;99.90;;;;;;5018830;28;90265;-32
2022/09/12 10:24:27;;;;;;;32.42;23.73;;;21.00;99.90;;;;;;5018229;27;91925;-34
2022/09/12 10:27:05;;;;;;;28.05;21.70;;;21.10;99.90;;;;;;5017705;27;89638;-31
2022/09/12 10:29:35;;;;;;;29.80;22.77;;;21.20;99.90;;;;;;5018627;28;89461;-31
2022/09/12 10:32:03;;;;;;;35.33;21.75;;;21.20;99.90;;;;;;5017785;27;90759;-31
2022/09/12 10:34:43;;;;;;;26.52;20.73;;;21.20;99.90;;;;;;5017468;28;89600;-34
2022/09/12 10:37:18;;;;;;;27.52;22.20;;;21.20;99.90;;;;;;5004902;28;89559;-32
2022/09/12 10:39:52;;;;;;;27.13;21.02;;;21.40;99.90;;;;;;5018234;28;90356;-32
2022/09/12 10:42:47;;;;;;;27.30;20.52;;;21.50;99.90;;;;;;5018006;27;89808;-31
2022/09/12 10:45:20;;;;;;;16.92;14.93;;;21.60;99.90;;;;;;5018380;28;88796;-32
2022/09/12 10:47:47;;;;;;;18.63;15.40;;;21.60;99.90;;;;;;5017338;27;90921;-32
2022/09/12 10:50:25;;;;;;;24.55;19.02;;;21.60;99.90;;;;;;5017638;28;90171;-32
2022/09/12 10:52:52;;;;;;;25.35;20.13;;;21.70;99.90;;;;;;5018705;27;90110;-31
2022/09/12 10:55:24;;;;;;;25.30;17.55;;;21.70;99.90;;;;;;5018354;28;90454;-31
2022/09/12 10:57:59;;;;;;;23.77;17.92;;;21.80;99.90;;;;;;5019179;27;89522;-32
2022/09/12 11:00:26;;;;;;;28.33;20.27;;;21.90;99.90;;;;;;5017454;28;89003;-32
2022/09/12 11:03:15;;;;;;;24.33;19.33;;;22.00;99.90;;;;;;5017534;27;89173;-31
2022/09/12 11:05:47;;;;;;;20.80;18.15;;;22.00;99.90;;;;;;5016737;27;90355;-31
2022/09/12 11:08:46;;;;;;;28.15;18.70;;;22.00;99.90;;;;;;5017277;27;90353;-32
2022/09/12 11:11:27;;;;;;;25.58;19.75;;;22.10;99.90;;;;;;5017063;27;89379;-29
2022/09/12 11:14:20;;;;;;;25.48;20.25;;;22.20;99.90;;;;;;5007366;28;89182;-32
2022/09/12 11:17:14;;;;;;;27.00;20.83;;;22.30;99.90;;;;;;5016816;28;90524;-31
2022/09/12 11:19:51;;;;;;;25.67;19.90;;;22.30;99.90;;;;;;5018127;27;89563;-33
2022/09/12 11:22:54;;;;;;;27.30;19.63;;;22.30;99.90;;;;;;5007129;28;89704;-31
2022/09/12 11:25:30;;;;;;;34.90;22.67;;;22.40;99.90;;;;;;5017254;28;90429;-31
2022/09/12 11:28:23;;;;;;;30.42;22.45;;;22.60;99.90;;;;;;5017386;27;89716;-33
2022/09/12 11:31:06;;;;;;;25.67;18.63;;;22.60;99.90;;;;;;5017254;27;89446;-32
2022/09/12 11:33:42;;;;;;;26.55;17.20;;;22.60;99.90;;;;;;5016198;28;90537;-32
2022/09/12 11:36:15;;;;;;;23.23;16.45;;;22.60;99.90;;;;;;5017531;27;90069;-31
2022/09/12 11:38:50;;;;;;;41.05;16.73;;;22.70;99.90;;;;;;5017379;27;89567;-34
2022/09/12 11:41:36;;;;;;;20.67;15.20;;;22.60;99.90;;;;;;5017176;28;89731;-32
2022/09/12 11:44:25;;;;;;;22.65;16.65;;;22.70;99.90;;;;;;5017493;28;87854;-33
2022/09/12 11:46:50;;;;;;;16.65;13.45;;;22.70;99.90;;;;;;5016990;28;90443;-31
2022/09/12 11:49:37;;;;;;;22.88;17.48;;;22.80;99.90;;;;;;5015954;28;89959;-34
2022/09/12 11:52:10;;;;;;;20.02;16.67;;;22.80;99.90;;;;;;5017851;28;90211;-29
2022/09/12 11:54:56;;;;;;;22.17;15.52;;;22.80;99.90;;;;;;5017015;28;88760;-32
2022/09/12 11:57:41;;;;;;;20.10;16.63;;;22.80;99.90;;;;;;5017692;28;90243;-32
2022/09/12 12:00:16;;;;;;;21.88;16.15;;;22.80;99.90;;;;;;5016622;27;91277;-32
2022/09/12 12:03:06;;;;;;;17.52;13.10;;;22.70;99.90;;;;;;5016977;27;90306;-32
2022/09/12 12:05:53;;;;;;;16.42;10.32;;;22.60;99.90;;;;;;5006142;28;88672;-32
2022/09/12 12:08:22;;;;;;;18.05;11.80;;;22.60;99.90;;;;;;5016766;27;89871;-31
2022/09/12 12:10:55;;;;;;;13.63;11.38;;;22.70;99.90;;;;;;5016866;27;89935;-31
2022/09/12 12:13:24;;;;;;;12.88;11.50;;;22.80;99.90;;;;;;5016682;27;89928;-33
2022/09/12 12:15:58;;;;;;;18.40;14.25;;;23.00;99.90;;;;;;5016691;28;90020;-33
2022/09/12 12:18:26;;;;;;;14.57;12.48;;;23.10;99.90;;;;;;5017481;27;90117;-34
2022/09/12 12:20:53;;;;;;;19.10;12.70;;;23.20;99.90;;;;;;5017335;27;89668;-30
2022/09/12 12:23:32;;;;;;;18.65;12.82;;;23.30;99.90;;;;;;5016494;27;90604;-32
2022/09/12 12:26:02;;;;;;;13.25;10.80;;;23.40;99.90;;;;;;5018876;28;89212;-33
2022/09/12 12:28:49;;;;;;;15.30;12.82;;;23.40;99.90;;;;;;5018100;28;94140;-32
2022/09/12 12:31:15;;;;;;;21.40;13.82;;;23.50;99.90;;;;;;5019895;27;89758;-33
2022/09/12 12:33:43;;;;;;;13.52;11.65;;;23.60;99.90;;;;;;5020722;27;89531;-32
2022/09/12 12:36:27;;;;;;;15.75;13.55;;;23.70;99.90;;;;;;5019099;28;89933;-32
2022/09/12 12:38:52;;;;;;;13.88;12.40;;;23.70;99.90;;;;;;5055212;22;90111;-32
2022/09/12 12:41:18;;;;;;;17.45;11.00;;;23.60;99.90;;;;;;5019728;27;90522;-32
2022/09/12 12:43:52;;;;;;;11.27;10.15;;;23.60;99.90;;;;;;5010098;28;89375;-34
2022/09/12 12:46:24;;;;;;;13.75;10.75;;;23.60;99.90;;;;;;5018798;28;88073;-31
2022/09/12 12:49:00;;;;;;;11.43;10.25;;;23.50;99.90;;;;;;5020204;27;90100;-33
2022/09/12 12:51:29;;;;;;;13.20;11.20;;;23.50;99.90;;;;;;5018834;27;89507;-33
2022/09/12 12:53:54;;;;;;;15.75;11.50;;;23.50;99.90;;;;;;5020268;28;90486;-34